< < Back
Terminal Aerodrome Forecast


Current Version              Previous Versions:   1  2  3  4  5  6  7  8  9  

Terminal Aerodrome Forecast

775
FTUS44 KBMX 282338
TAFTCL
TAF
KTCL 282338Z 2900/2924 08003KT P6SM FEW050 FEW250
     FM291600 07009KT P6SM SCT050=



Latest METAR

139
SAUS70 KWBC 290100 RRI
MTRTCL
METAR KTCL 290053Z 00000KT 10SM CLR 28/22 A3001 RMK AO2 SLP161
T02780217


USA.gov is the U.S. government's official web portal to all federal, state and local government web resources and services.